sensor_id;sensor_type;location;lat;lon;timestamp;temperature;humidity
3069;DHT22;1545;51.728;8.796;2023-08-07T00:02:16;13.80;98.80
3069;DHT22;1545;51.728;8.796;2023-08-07T00:04:42;13.80;98.80
3069;DHT22;1545;51.728;8.796;2023-08-07T00:07:07;13.80;98.80
3069;DHT22;1545;51.728;8.796;2023-08-07T00:09:33;13.70;98.80
3069;DHT22;1545;51.728;8.796;2023-08-07T00:11:58;13.80;98.80
3069;DHT22;1545;51.728;8.796;2023-08-07T00:14:24;13.70;98.80
3069;DHT22;1545;51.728;8.796;2023-08-07T00:16:49;13.80;98.80
3069;DHT22;1545;51.728;8.796;2023-08-07T00:19:15;13.80;98.80
3069;DHT22;1545;51.728;8.796;2023-08-07T00:21:40;13.80;98.80
3069;DHT22;1545;51.728;8.796;2023-08-07T00:24:07;13.80;98.80
3069;DHT22;1545;51.728;8.796;2023-08-07T00:26:32;13.80;98.80
3069;DHT22;1545;51.728;8.796;2023-08-07T00:28:58;13.70;98.80
3069;DHT22;1545;51.728;8.796;2023-08-07T00:31:23;13.80;98.80
3069;DHT22;1545;51.728;8.796;2023-08-07T00:33:49;13.70;98.80
3069;DHT22;1545;51.728;8.796;2023-08-07T00:36:17;13.70;98.80
3069;DHT22;1545;51.728;8.796;2023-08-07T00:38:42;13.70;98.80
3069;DHT22;1545;51.728;8.796;2023-08-07T00:41:08;13.70;98.80
3069;DHT22;1545;51.728;8.796;2023-08-07T00:43:35;13.70;98.80
3069;DHT22;1545;51.728;8.796;2023-08-07T00:46:01;13.70;98.80
3069;DHT22;1545;51.728;8.796;2023-08-07T00:48:27;13.70;98.80
3069;DHT22;1545;51.728;8.796;2023-08-07T00:50:54;13.70;98.80
3069;DHT22;1545;51.728;8.796;2023-08-07T00:53:19;13.70;98.80
3069;DHT22;1545;51.728;8.796;2023-08-07T00:55:46;13.70;98.80
3069;DHT22;1545;51.728;8.796;2023-08-07T00:58:12;13.70;98.80
3069;DHT22;1545;51.728;8.796;2023-08-07T01:00:38;13.70;98.80
3069;DHT22;1545;51.728;8.796;2023-08-07T01:03:07;13.60;98.80
3069;DHT22;1545;51.728;8.796;2023-08-07T01:05:33;13.70;98.80
3069;DHT22;1545;51.728;8.796;2023-08-07T01:07:59;13.70;98.80
3069;DHT22;1545;51.728;8.796;2023-08-07T01:10:56;13.70;98.80
3069;DHT22;1545;51.728;8.796;2023-08-07T01:13:40;13.70;98.80
3069;DHT22;1545;51.728;8.796;2023-08-07T01:16:19;13.70;98.80
3069;DHT22;1545;51.728;8.796;2023-08-07T01:18:47;13.70;98.80
3069;DHT22;1545;51.728;8.796;2023-08-07T01:21:19;13.70;98.80
3069;DHT22;1545;51.728;8.796;2023-08-07T01:23:48;13.70;98.80
3069;DHT22;1545;51.728;8.796;2023-08-07T01:26:15;13.70;98.80
3069;DHT22;1545;51.728;8.796;2023-08-07T01:28:49;13.70;98.80
3069;DHT22;1545;51.728;8.796;2023-08-07T01:31:22;13.70;98.80
3069;DHT22;1545;51.728;8.796;2023-08-07T01:33:57;13.70;98.80
3069;DHT22;1545;51.728;8.796;2023-08-07T01:36:26;13.70;98.80
3069;DHT22;1545;51.728;8.796;2023-08-07T01:38:53;13.60;98.80
3069;DHT22;1545;51.728;8.796;2023-08-07T01:41:19;13.60;98.80
3069;DHT22;1545;51.728;8.796;2023-08-07T01:43:45;13.60;98.80
3069;DHT22;1545;51.728;8.796;2023-08-07T01:46:11;13.60;98.80
3069;DHT22;1545;51.728;8.796;2023-08-07T01:48:36;13.60;98.80
3069;DHT22;1545;51.728;8.796;2023-08-07T01:51:02;13.60;98.80
3069;DHT22;1545;51.728;8.796;2023-08-07T01:53:27;13.60;98.80
3069;DHT22;1545;51.728;8.796;2023-08-07T01:55:53;13.60;98.80
3069;DHT22;1545;51.728;8.796;2023-08-07T01:58:19;13.60;98.80
3069;DHT22;1545;51.728;8.796;2023-08-07T02:00:44;13.60;98.80
3069;DHT22;1545;51.728;8.796;2023-08-07T02:03:10;13.60;98.80
3069;DHT22;1545;51.728;8.796;2023-08-07T02:05:35;13.60;98.80
3069;DHT22;1545;51.728;8.796;2023-08-07T02:08:01;13.60;98.80
3069;DHT22;1545;51.728;8.796;2023-08-07T02:10:26;13.50;98.80
3069;DHT22;1545;51.728;8.796;2023-08-07T02:12:53;13.50;98.80
3069;DHT22;1545;51.728;8.796;2023-08-07T02:15:19;13.50;98.80
3069;DHT22;1545;51.728;8.796;2023-08-07T02:17:44;13.50;98.80
3069;DHT22;1545;51.728;8.796;2023-08-07T02:20:10;13.50;98.80
3069;DHT22;1545;51.728;8.796;2023-08-07T02:22:36;13.50;98.80
3069;DHT22;1545;51.728;8.796;2023-08-07T02:25:02;13.50;98.80
3069;DHT22;1545;51.728;8.796;2023-08-07T02:27:27;13.50;98.80
3069;DHT22;1545;51.728;8.796;2023-08-07T02:29:53;13.50;98.80
3069;DHT22;1545;51.728;8.796;2023-08-07T02:32:19;13.50;98.80
3069;DHT22;1545;51.728;8.796;2023-08-07T02:34:45;13.50;98.80
3069;DHT22;1545;51.728;8.796;2023-08-07T02:37:10;13.60;98.80
3069;DHT22;1545;51.728;8.796;2023-08-07T02:39:36;13.60;98.80
3069;DHT22;1545;51.728;8.796;2023-08-07T02:42:01;13.60;98.80
3069;DHT22;1545;51.728;8.796;2023-08-07T02:44:27;13.50;98.80
3069;DHT22;1545;51.728;8.796;2023-08-07T02:46:52;13.50;98.80
3069;DHT22;1545;51.728;8.796;2023-08-07T02:49:18;13.50;98.80
3069;DHT22;1545;51.728;8.796;2023-08-07T02:51:43;13.50;98.80
3069;DHT22;1545;51.728;8.796;2023-08-07T02:54:09;13.50;98.80
3069;DHT22;1545;51.728;8.796;2023-08-07T02:56:34;13.50;98.80
3069;DHT22;1545;51.728;8.796;2023-08-07T02:59:00;13.60;98.80
3069;DHT22;1545;51.728;8.796;2023-08-07T03:01:27;13.60;98.80
3069;DHT22;1545;51.728;8.796;2023-08-07T03:03:53;13.60;98.80
3069;DHT22;1545;51.728;8.796;2023-08-07T03:06:18;13.60;98.80
3069;DHT22;1545;51.728;8.796;2023-08-07T03:08:44;13.60;98.80
3069;DHT22;1545;51.728;8.796;2023-08-07T03:11:09;13.60;98.80
3069;DHT22;1545;51.728;8.796;2023-08-07T03:13:35;13.70;98.80
3069;DHT22;1545;51.728;8.796;2023-08-07T03:16:05;13.70;98.80
3069;DHT22;1545;51.728;8.796;2023-08-07T03:18:31;13.70;98.80
3069;DHT22;1545;51.728;8.796;2023-08-07T03:20:58;13.70;98.80
3069;DHT22;1545;51.728;8.796;2023-08-07T03:23:24;13.70;98.80
3069;DHT22;1545;51.728;8.796;2023-08-07T03:25:50;13.70;98.80
3069;DHT22;1545;51.728;8.796;2023-08-07T03:28:16;13.70;98.80
3069;DHT22;1545;51.728;8.796;2023-08-07T03:30:42;13.70;98.80
3069;DHT22;1545;51.728;8.796;2023-08-07T03:33:10;13.70;98.80
3069;DHT22;1545;51.728;8.796;2023-08-07T03:35:35;13.70;98.80
3069;DHT22;1545;51.728;8.796;2023-08-07T03:38:01;13.80;98.80
3069;DHT22;1545;51.728;8.796;2023-08-07T03:40:26;13.80;98.80
3069;DHT22;1545;51.728;8.796;2023-08-07T03:42:52;13.70;98.80
3069;DHT22;1545;51.728;8.796;2023-08-07T03:45:17;13.70;98.80
3069;DHT22;1545;51.728;8.796;2023-08-07T03:47:43;13.80;98.80
3069;DHT22;1545;51.728;8.796;2023-08-07T03:50:08;13.80;98.80
3069;DHT22;1545;51.728;8.796;2023-08-07T03:52:34;13.80;98.80
3069;DHT22;1545;51.728;8.796;2023-08-07T03:54:59;13.80;98.80
3069;DHT22;1545;51.728;8.796;2023-08-07T03:57:25;13.80;98.80
3069;DHT22;1545;51.728;8.796;2023-08-07T03:59:51;13.80;98.80
3069;DHT22;1545;51.728;8.796;2023-08-07T04:02:16;13.80;98.80
3069;DHT22;1545;51.728;8.796;2023-08-07T04:04:42;13.90;98.80
3069;DHT22;1545;51.728;8.796;2023-08-07T04:07:07;13.90;98.80
3069;DHT22;1545;51.728;8.796;2023-08-07T04:09:33;13.90;98.80
3069;DHT22;1545;51.728;8.796;2023-08-07T04:11:58;13.90;98.80
3069;DHT22;1545;51.728;8.796;2023-08-07T04:14:24;14.00;98.80
3069;DHT22;1545;51.728;8.796;2023-08-07T04:16:50;14.00;98.80
3069;DHT22;1545;51.728;8.796;2023-08-07T04:19:16;14.00;98.80
3069;DHT22;1545;51.728;8.796;2023-08-07T04:21:41;14.00;98.80
3069;DHT22;1545;51.728;8.796;2023-08-07T04:24:07;14.00;98.80
3069;DHT22;1545;51.728;8.796;2023-08-07T04:26:37;14.00;98.80
3069;DHT22;1545;51.728;8.796;2023-08-07T04:29:02;14.00;98.80
3069;DHT22;1545;51.728;8.796;2023-08-07T04:31:29;14.00;98.80
3069;DHT22;1545;51.728;8.796;2023-08-07T04:33:56;14.00;98.80
3069;DHT22;1545;51.728;8.796;2023-08-07T04:36:22;14.00;98.80
3069;DHT22;1545;51.728;8.796;2023-08-07T04:38:48;14.00;98.80
3069;DHT22;1545;51.728;8.796;2023-08-07T04:41:13;14.00;98.80
3069;DHT22;1545;51.728;8.796;2023-08-07T04:43:39;14.00;98.80
3069;DHT22;1545;51.728;8.796;2023-08-07T04:46:04;13.90;98.80
3069;DHT22;1545;51.728;8.796;2023-08-07T04:48:30;13.90;98.80
3069;DHT22;1545;51.728;8.796;2023-08-07T04:50:56;13.90;98.80
3069;DHT22;1545;51.728;8.796;2023-08-07T04:53:23;14.00;98.80
3069;DHT22;1545;51.728;8.796;2023-08-07T04:55:48;14.00;98.80
3069;DHT22;1545;51.728;8.796;2023-08-07T04:58:14;14.00;98.80
3069;DHT22;1545;51.728;8.796;2023-08-07T05:00:39;13.90;98.80
3069;DHT22;1545;51.728;8.796;2023-08-07T05:03:05;13.90;98.80
3069;DHT22;1545;51.728;8.796;2023-08-07T05:05:31;13.90;98.80
3069;DHT22;1545;51.728;8.796;2023-08-07T05:07:58;13.90;98.80
3069;DHT22;1545;51.728;8.796;2023-08-07T05:10:24;13.90;98.80
3069;DHT22;1545;51.728;8.796;2023-08-07T05:12:49;13.90;98.80
3069;DHT22;1545;51.728;8.796;2023-08-07T05:15:24;13.90;98.80
3069;DHT22;1545;51.728;8.796;2023-08-07T05:17:50;13.90;98.80
3069;DHT22;1545;51.728;8.796;2023-08-07T05:20:15;13.90;98.80
3069;DHT22;1545;51.728;8.796;2023-08-07T05:22:41;13.90;98.80
3069;DHT22;1545;51.728;8.796;2023-08-07T05:25:07;13.90;98.80
3069;DHT22;1545;51.728;8.796;2023-08-07T05:27:35;13.90;98.80
3069;DHT22;1545;51.728;8.796;2023-08-07T05:30:00;13.90;98.80
3069;DHT22;1545;51.728;8.796;2023-08-07T05:32:26;13.90;98.80
3069;DHT22;1545;51.728;8.796;2023-08-07T05:34:52;13.90;98.80
3069;DHT22;1545;51.728;8.796;2023-08-07T05:37:17;13.90;98.80
3069;DHT22;1545;51.728;8.796;2023-08-07T05:39:43;13.90;98.80
3069;DHT22;1545;51.728;8.796;2023-08-07T05:42:09;14.00;98.80
3069;DHT22;1545;51.728;8.796;2023-08-07T05:44:35;14.00;98.80
3069;DHT22;1545;51.728;8.796;2023-08-07T05:47:01;14.00;98.80
3069;DHT22;1545;51.728;8.796;2023-08-07T05:49:26;14.10;98.80
3069;DHT22;1545;51.728;8.796;2023-08-07T05:51:53;14.10;98.80
3069;DHT22;1545;51.728;8.796;2023-08-07T05:54:18;14.10;98.80
3069;DHT22;1545;51.728;8.796;2023-08-07T05:56:44;14.20;98.80
3069;DHT22;1545;51.728;8.796;2023-08-07T05:59:09;14.20;98.80
3069;DHT22;1545;51.728;8.796;2023-08-07T06:01:35;14.20;98.80
3069;DHT22;1545;51.728;8.796;2023-08-07T06:04:02;14.20;98.80
3069;DHT22;1545;51.728;8.796;2023-08-07T06:06:27;14.20;98.80
3069;DHT22;1545;51.728;8.796;2023-08-07T06:08:56;14.20;98.80
3069;DHT22;1545;51.728;8.796;2023-08-07T06:11:22;14.30;98.80
3069;DHT22;1545;51.728;8.796;2023-08-07T06:13:49;14.30;98.80
3069;DHT22;1545;51.728;8.796;2023-08-07T06:16:14;14.30;98.80
3069;DHT22;1545;51.728;8.796;2023-08-07T06:18:40;14.40;98.80
3069;DHT22;1545;51.728;8.796;2023-08-07T06:21:05;14.40;98.80
3069;DHT22;1545;51.728;8.796;2023-08-07T06:23:33;14.60;98.80
3069;DHT22;1545;51.728;8.796;2023-08-07T06:25:59;14.60;98.80
3069;DHT22;1545;51.728;8.796;2023-08-07T06:28:24;14.70;98.80
3069;DHT22;1545;51.728;8.796;2023-08-07T06:30:50;14.70;98.80
3069;DHT22;1545;51.728;8.796;2023-08-07T06:33:15;14.80;98.80
3069;DHT22;1545;51.728;8.796;2023-08-07T06:35:41;14.80;98.80
3069;DHT22;1545;51.728;8.796;2023-08-07T06:38:08;14.90;98.80
3069;DHT22;1545;51.728;8.796;2023-08-07T06:40:35;14.90;98.80
3069;DHT22;1545;51.728;8.796;2023-08-07T06:43:00;14.90;98.80
3069;DHT22;1545;51.728;8.796;2023-08-07T06:45:26;14.90;98.80
3069;DHT22;1545;51.728;8.796;2023-08-07T06:47:51;14.90;98.80
3069;DHT22;1545;51.728;8.796;2023-08-07T06:50:17;14.90;98.80
3069;DHT22;1545;51.728;8.796;2023-08-07T06:52:43;14.90;98.80
3069;DHT22;1545;51.728;8.796;2023-08-07T06:55:09;14.80;98.80
3069;DHT22;1545;51.728;8.796;2023-08-07T06:57:35;14.80;98.80
3069;DHT22;1545;51.728;8.796;2023-08-07T07:00:00;14.70;98.80
3069;DHT22;1545;51.728;8.796;2023-08-07T07:02:26;14.70;98.80
3069;DHT22;1545;51.728;8.796;2023-08-07T07:04:53;14.60;98.80
3069;DHT22;1545;51.728;8.796;2023-08-07T07:07:19;14.60;98.80
3069;DHT22;1545;51.728;8.796;2023-08-07T07:09:44;14.50;98.80
3069;DHT22;1545;51.728;8.796;2023-08-07T07:12:10;14.50;98.80
3069;DHT22;1545;51.728;8.796;2023-08-07T07:14:35;14.60;98.80
3069;DHT22;1545;51.728;8.796;2023-08-07T07:17:01;14.50;98.80
3069;DHT22;1545;51.728;8.796;2023-08-07T07:19:26;14.50;98.80
3069;DHT22;1545;51.728;8.796;2023-08-07T07:21:52;14.50;98.80
3069;DHT22;1545;51.728;8.796;2023-08-07T07:24:18;14.60;98.80
3069;DHT22;1545;51.728;8.796;2023-08-07T07:26:44;14.60;98.80
3069;DHT22;1545;51.728;8.796;2023-08-07T07:29:10;14.70;98.80
3069;DHT22;1545;51.728;8.796;2023-08-07T07:31:38;14.70;98.80
3069;DHT22;1545;51.728;8.796;2023-08-07T07:34:04;14.70;98.80
3069;DHT22;1545;51.728;8.796;2023-08-07T07:36:29;14.70;98.80
3069;DHT22;1545;51.728;8.796;2023-08-07T07:38:55;14.70;98.80
3069;DHT22;1545;51.728;8.796;2023-08-07T07:41:22;14.80;98.80
3069;DHT22;1545;51.728;8.796;2023-08-07T07:43:47;14.80;98.80
3069;DHT22;1545;51.728;8.796;2023-08-07T07:46:13;15.00;98.80
3069;DHT22;1545;51.728;8.796;2023-08-07T07:48:38;15.10;98.80
3069;DHT22;1545;51.728;8.796;2023-08-07T07:51:04;15.30;98.80
3069;DHT22;1545;51.728;8.796;2023-08-07T07:53:30;15.30;98.70
3069;DHT22;1545;51.728;8.796;2023-08-07T07:55:56;15.30;98.60
3069;DHT22;1545;51.728;8.796;2023-08-07T07:58:22;15.30;98.80
3069;DHT22;1545;51.728;8.796;2023-08-07T08:00:48;15.20;98.80
3069;DHT22;1545;51.728;8.796;2023-08-07T08:03:14;15.10;98.80
3069;DHT22;1545;51.728;8.796;2023-08-07T08:05:39;15.00;98.80
3069;DHT22;1545;51.728;8.796;2023-08-07T08:08:06;15.00;98.80
3069;DHT22;1545;51.728;8.796;2023-08-07T08:10:34;15.10;98.80
3069;DHT22;1545;51.728;8.796;2023-08-07T08:13:00;15.10;98.80
3069;DHT22;1545;51.728;8.796;2023-08-07T08:15:26;15.20;98.80
3069;DHT22;1545;51.728;8.796;2023-08-07T08:17:51;15.30;98.80
3069;DHT22;1545;51.728;8.796;2023-08-07T08:20:17;15.40;98.80
3069;DHT22;1545;51.728;8.796;2023-08-07T08:22:45;15.50;98.80
3069;DHT22;1545;51.728;8.796;2023-08-07T08:25:10;15.50;98.30
3069;DHT22;1545;51.728;8.796;2023-08-07T08:27:37;15.40;98.30
3069;DHT22;1545;51.728;8.796;2023-08-07T08:30:03;15.40;98.80
3069;DHT22;1545;51.728;8.796;2023-08-07T08:32:29;15.50;98.80
3069;DHT22;1545;51.728;8.796;2023-08-07T08:34:54;15.50;98.80
3069;DHT22;1545;51.728;8.796;2023-08-07T08:37:20;15.60;98.80
3069;DHT22;1545;51.728;8.796;2023-08-07T08:39:46;15.50;98.70
3069;DHT22;1545;51.728;8.796;2023-08-07T08:42:12;15.40;98.80
3069;DHT22;1545;51.728;8.796;2023-08-07T08:44:51;15.30;98.80
3069;DHT22;1545;51.728;8.796;2023-08-07T08:47:17;15.30;98.80
3069;DHT22;1545;51.728;8.796;2023-08-07T08:49:46;15.40;98.80
3069;DHT22;1545;51.728;8.796;2023-08-07T08:52:12;15.60;98.80
3069;DHT22;1545;51.728;8.796;2023-08-07T08:54:39;15.80;98.80
3069;DHT22;1545;51.728;8.796;2023-08-07T08:57:06;16.10;98.50
3069;DHT22;1545;51.728;8.796;2023-08-07T08:59:32;16.20;97.10
3069;DHT22;1545;51.728;8.796;2023-08-07T09:01:59;16.20;96.60
3069;DHT22;1545;51.728;8.796;2023-08-07T09:04:24;16.10;97.20
3069;DHT22;1545;51.728;8.796;2023-08-07T09:06:50;16.20;97.60
3069;DHT22;1545;51.728;8.796;2023-08-07T09:09:17;16.40;97.30
3069;DHT22;1545;51.728;8.796;2023-08-07T09:11:45;16.40;96.00
3069;DHT22;1545;51.728;8.796;2023-08-07T09:14:16;16.40;96.20
3069;DHT22;1545;51.728;8.796;2023-08-07T09:16:47;16.50;96.80
3069;DHT22;1545;51.728;8.796;2023-08-07T09:19:13;16.50;96.00
3069;DHT22;1545;51.728;8.796;2023-08-07T09:21:39;16.60;96.70
3069;DHT22;1545;51.728;8.796;2023-08-07T09:24:05;17.00;96.00
3069;DHT22;1545;51.728;8.796;2023-08-07T09:26:32;18.00;92.50
3069;DHT22;1545;51.728;8.796;2023-08-07T09:28:59;18.40;90.70
3069;DHT22;1545;51.728;8.796;2023-08-07T09:31:26;18.50;90.20
3069;DHT22;1545;51.728;8.796;2023-08-07T09:33:52;18.40;91.50
3069;DHT22;1545;51.728;8.796;2023-08-07T09:36:17;18.40;91.00
3069;DHT22;1545;51.728;8.796;2023-08-07T09:38:44;18.50;91.30
3069;DHT22;1545;51.728;8.796;2023-08-07T09:41:17;18.90;90.90
3069;DHT22;1545;51.728;8.796;2023-08-07T09:43:43;19.40;88.50
3069;DHT22;1545;51.728;8.796;2023-08-07T09:46:08;19.50;87.40
3069;DHT22;1545;51.728;8.796;2023-08-07T09:48:42;19.30;87.50
3069;DHT22;1545;51.728;8.796;2023-08-07T09:51:08;19.10;86.60
3069;DHT22;1545;51.728;8.796;2023-08-07T09:53:34;19.20;86.80
3069;DHT22;1545;51.728;8.796;2023-08-07T09:56:00;19.20;84.20
3069;DHT22;1545;51.728;8.796;2023-08-07T09:58:26;19.50;84.50
3069;DHT22;1545;51.728;8.796;2023-08-07T10:00:51;19.80;83.70
3069;DHT22;1545;51.728;8.796;2023-08-07T10:03:19;19.70;84.50
3069;DHT22;1545;51.728;8.796;2023-08-07T10:05:45;19.70;84.40
3069;DHT22;1545;51.728;8.796;2023-08-07T10:08:12;19.30;84.20
3069;DHT22;1545;51.728;8.796;2023-08-07T10:10:38;18.80;85.60
3069;DHT22;1545;51.728;8.796;2023-08-07T10:13:04;18.20;87.70
3069;DHT22;1545;51.728;8.796;2023-08-07T10:15:32;17.20;88.20
3069;DHT22;1545;51.728;8.796;2023-08-07T10:17:58;16.20;93.50
3069;DHT22;1545;51.728;8.796;2023-08-07T10:20:26;15.70;97.10
3069;DHT22;1545;51.728;8.796;2023-08-07T10:22:52;15.70;98.10
3069;DHT22;1545;51.728;8.796;2023-08-07T10:25:21;15.80;98.60
3069;DHT22;1545;51.728;8.796;2023-08-07T10:27:49;16.00;97.60
3069;DHT22;1545;51.728;8.796;2023-08-07T10:30:16;16.40;95.10
3069;DHT22;1545;51.728;8.796;2023-08-07T10:32:44;16.40;92.90
3069;DHT22;1545;51.728;8.796;2023-08-07T10:36:05;16.70;92.90
3069;DHT22;1545;51.728;8.796;2023-08-07T10:38:12;17.10;89.30
3069;DHT22;1545;51.728;8.796;2023-08-07T10:43:30;17.00;90.90
3069;DHT22;1545;51.728;8.796;2023-08-07T10:46:22;17.20;91.70
3069;DHT22;1545;51.728;8.796;2023-08-07T10:48:54;17.30;87.70
3069;DHT22;1545;51.728;8.796;2023-08-07T10:51:20;17.20;89.20
3069;DHT22;1545;51.728;8.796;2023-08-07T10:53:49;17.20;90.50
3069;DHT22;1545;51.728;8.796;2023-08-07T10:56:19;17.40;89.60
3069;DHT22;1545;51.728;8.796;2023-08-07T10:58:54;17.50;89.90
3069;DHT22;1545;51.728;8.796;2023-08-07T11:03:57;17.20;88.60
3069;DHT22;1545;51.728;8.796;2023-08-07T11:06:31;17.10;89.70
3069;DHT22;1545;51.728;8.796;2023-08-07T11:09:00;17.30;90.70
3069;DHT22;1545;51.728;8.796;2023-08-07T11:11:28;17.70;90.30
3069;DHT22;1545;51.728;8.796;2023-08-07T11:13:54;17.90;88.90
3069;DHT22;1545;51.728;8.796;2023-08-07T11:16:20;18.00;87.30
3069;DHT22;1545;51.728;8.796;2023-08-07T11:18:47;17.90;88.20
3069;DHT22;1545;51.728;8.796;2023-08-07T11:21:13;18.50;87.60
3069;DHT22;1545;51.728;8.796;2023-08-07T11:23:40;19.20;86.00
3069;DHT22;1545;51.728;8.796;2023-08-07T11:26:06;19.30;83.80
3069;DHT22;1545;51.728;8.796;2023-08-07T11:28:32;18.80;82.30
3069;DHT22;1545;51.728;8.796;2023-08-07T11:30:58;18.30;84.20
3069;DHT22;1545;51.728;8.796;2023-08-07T11:33:25;17.60;85.70
3069;DHT22;1545;51.728;8.796;2023-08-07T11:35:51;17.70;86.40
3069;DHT22;1545;51.728;8.796;2023-08-07T11:41:01;17.90;86.20
3069;DHT22;1545;51.728;8.796;2023-08-07T11:43:27;18.40;82.80
3069;DHT22;1545;51.728;8.796;2023-08-07T11:45:54;18.90;79.30
3069;DHT22;1545;51.728;8.796;2023-08-07T11:48:19;19.40;78.60
3069;DHT22;1545;51.728;8.796;2023-08-07T11:50:45;18.70;81.60
3069;DHT22;1545;51.728;8.796;2023-08-07T11:53:11;17.30;83.70
3069;DHT22;1545;51.728;8.796;2023-08-07T11:55:36;16.60;88.50
3069;DHT22;1545;51.728;8.796;2023-08-07T11:58:05;16.70;89.40
3069;DHT22;1545;51.728;8.796;2023-08-07T12:00:32;16.70;89.80
3069;DHT22;1545;51.728;8.796;2023-08-07T12:02:57;16.50;86.70
3069;DHT22;1545;51.728;8.796;2023-08-07T12:05:23;16.50;87.40
3069;DHT22;1545;51.728;8.796;2023-08-07T12:07:49;16.80;87.10
3069;DHT22;1545;51.728;8.796;2023-08-07T12:10:14;17.00;84.20
3069;DHT22;1545;51.728;8.796;2023-08-07T12:12:42;17.10;83.40
3069;DHT22;1545;51.728;8.796;2023-08-07T12:15:09;17.10;81.50
3069;DHT22;1545;51.728;8.796;2023-08-07T12:17:36;17.10;81.40
3069;DHT22;1545;51.728;8.796;2023-08-07T12:20:04;17.30;80.90
3069;DHT22;1545;51.728;8.796;2023-08-07T12:22:32;17.50;81.60
3069;DHT22;1545;51.728;8.796;2023-08-07T12:24:57;17.60;80.80
3069;DHT22;1545;51.728;8.796;2023-08-07T12:27:23;17.80;80.50
3069;DHT22;1545;51.728;8.796;2023-08-07T12:29:48;17.90;79.90
3069;DHT22;1545;51.728;8.796;2023-08-07T12:32:14;18.30;79.50
3069;DHT22;1545;51.728;8.796;2023-08-07T12:34:39;18.40;79.70
3069;DHT22;1545;51.728;8.796;2023-08-07T12:37:06;18.30;80.90
3069;DHT22;1545;51.728;8.796;2023-08-07T12:39:31;18.50;79.50
3069;DHT22;1545;51.728;8.796;2023-08-07T12:41:57;18.70;79.50
3069;DHT22;1545;51.728;8.796;2023-08-07T12:44:23;19.00;79.70
3069;DHT22;1545;51.728;8.796;2023-08-07T12:46:49;19.30;79.10
3069;DHT22;1545;51.728;8.796;2023-08-07T12:49:15;19.40;78.70
3069;DHT22;1545;51.728;8.796;2023-08-07T12:51:41;18.90;79.50
3069;DHT22;1545;51.728;8.796;2023-08-07T12:54:06;18.30;80.70
3069;DHT22;1545;51.728;8.796;2023-08-07T12:56:32;17.50;83.90
3069;DHT22;1545;51.728;8.796;2023-08-07T12:58:57;17.00;85.30
3069;DHT22;1545;51.728;8.796;2023-08-07T13:01:24;16.80;86.00
3069;DHT22;1545;51.728;8.796;2023-08-07T13:03:50;17.10;86.60
3069;DHT22;1545;51.728;8.796;2023-08-07T13:06:16;17.30;84.90
3069;DHT22;1545;51.728;8.796;2023-08-07T13:08:42;17.50;85.00
3069;DHT22;1545;51.728;8.796;2023-08-07T13:11:07;17.50;84.20
3069;DHT22;1545;51.728;8.796;2023-08-07T13:13:33;17.60;83.60
3069;DHT22;1545;51.728;8.796;2023-08-07T13:15:58;17.80;83.30
3069;DHT22;1545;51.728;8.796;2023-08-07T13:18:24;18.20;81.80
3069;DHT22;1545;51.728;8.796;2023-08-07T13:20:50;18.50;81.20
3069;DHT22;1545;51.728;8.796;2023-08-07T13:23:16;18.80;80.20
3069;DHT22;1545;51.728;8.796;2023-08-07T13:25:42;19.00;78.60
3069;DHT22;1545;51.728;8.796;2023-08-07T13:28:07;19.10;77.30
3069;DHT22;1545;51.728;8.796;2023-08-07T13:30:33;19.00;76.30
3069;DHT22;1545;51.728;8.796;2023-08-07T13:32:59;18.90;76.20
3069;DHT22;1545;51.728;8.796;2023-08-07T13:35:24;18.60;76.50
3069;DHT22;1545;51.728;8.796;2023-08-07T13:37:50;18.20;75.00
3069;DHT22;1545;51.728;8.796;2023-08-07T13:40:15;17.80;75.80
3069;DHT22;1545;51.728;8.796;2023-08-07T13:42:42;17.70;76.80
3069;DHT22;1545;51.728;8.796;2023-08-07T13:45:09;17.80;76.90
3069;DHT22;1545;51.728;8.796;2023-08-07T13:47:35;18.00;75.90
3069;DHT22;1545;51.728;8.796;2023-08-07T13:50:01;18.30;76.30
3069;DHT22;1545;51.728;8.796;2023-08-07T13:52:27;18.50;75.60
3069;DHT22;1545;51.728;8.796;2023-08-07T13:54:53;18.90;75.80
3069;DHT22;1545;51.728;8.796;2023-08-07T13:57:18;18.90;74.10
3069;DHT22;1545;51.728;8.796;2023-08-07T13:59:44;19.10;74.20
3069;DHT22;1545;51.728;8.796;2023-08-07T14:02:09;19.00;73.40
3069;DHT22;1545;51.728;8.796;2023-08-07T14:04:35;18.90;73.30
3069;DHT22;1545;51.728;8.796;2023-08-07T14:07:02;18.80;74.10
3069;DHT22;1545;51.728;8.796;2023-08-07T14:09:28;18.70;72.30
3069;DHT22;1545;51.728;8.796;2023-08-07T14:11:53;18.50;72.70
3069;DHT22;1545;51.728;8.796;2023-08-07T14:14:19;18.60;73.70
3069;DHT22;1545;51.728;8.796;2023-08-07T14:16:44;18.60;73.60
3069;DHT22;1545;51.728;8.796;2023-08-07T14:19:12;18.90;72.30
3069;DHT22;1545;51.728;8.796;2023-08-07T14:21:38;18.80;71.10
3069;DHT22;1545;51.728;8.796;2023-08-07T14:24:05;18.90;71.30
3069;DHT22;1545;51.728;8.796;2023-08-07T14:26:30;19.00;70.80
3069;DHT22;1545;51.728;8.796;2023-08-07T14:28:56;18.90;71.30
3069;DHT22;1545;51.728;8.796;2023-08-07T14:31:21;18.70;72.20
3069;DHT22;1545;51.728;8.796;2023-08-07T14:33:47;18.70;73.00
3069;DHT22;1545;51.728;8.796;2023-08-07T14:36:12;18.70;72.40
3069;DHT22;1545;51.728;8.796;2023-08-07T14:38:40;18.70;71.20
3069;DHT22;1545;51.728;8.796;2023-08-07T14:41:05;18.80;70.50
3069;DHT22;1545;51.728;8.796;2023-08-07T14:43:31;18.80;69.10
3069;DHT22;1545;51.728;8.796;2023-08-07T14:45:58;18.70;69.40
3069;DHT22;1545;51.728;8.796;2023-08-07T14:48:24;18.50;70.60
3069;DHT22;1545;51.728;8.796;2023-08-07T14:50:49;18.20;72.30
3069;DHT22;1545;51.728;8.796;2023-08-07T14:53:15;18.40;72.20
3069;DHT22;1545;51.728;8.796;2023-08-07T14:55:40;18.30;72.80
3069;DHT22;1545;51.728;8.796;2023-08-07T14:58:07;18.30;72.70
3069;DHT22;1545;51.728;8.796;2023-08-07T15:00:32;18.30;72.50
3069;DHT22;1545;51.728;8.796;2023-08-07T15:02:59;18.40;71.40
3069;DHT22;1545;51.728;8.796;2023-08-07T15:05:25;18.40;71.90
3069;DHT22;1545;51.728;8.796;2023-08-07T15:07:51;18.60;70.80
3069;DHT22;1545;51.728;8.796;2023-08-07T15:10:16;18.80;72.30
3069;DHT22;1545;51.728;8.796;2023-08-07T15:12:42;19.00;71.10
3069;DHT22;1545;51.728;8.796;2023-08-07T15:15:08;19.00;69.70
3069;DHT22;1545;51.728;8.796;2023-08-07T15:17:33;19.20;69.50
3069;DHT22;1545;51.728;8.796;2023-08-07T15:19:59;19.20;67.30
3069;DHT22;1545;51.728;8.796;2023-08-07T15:22:24;19.00;69.60
3069;DHT22;1545;51.728;8.796;2023-08-07T15:24:50;18.80;69.80
3069;DHT22;1545;51.728;8.796;2023-08-07T15:27:15;18.90;71.70
3069;DHT22;1545;51.728;8.796;2023-08-07T15:29:44;19.00;70.80
3069;DHT22;1545;51.728;8.796;2023-08-07T15:32:11;19.10;70.20
3069;DHT22;1545;51.728;8.796;2023-08-07T15:34:39;19.10;69.20
3069;DHT22;1545;51.728;8.796;2023-08-07T15:37:05;19.20;70.10
3069;DHT22;1545;51.728;8.796;2023-08-07T15:39:30;19.50;69.80
3069;DHT22;1545;51.728;8.796;2023-08-07T15:41:56;19.20;68.20
3069;DHT22;1545;51.728;8.796;2023-08-07T15:44:22;19.00;70.00
3069;DHT22;1545;51.728;8.796;2023-08-07T15:46:47;18.90;70.60
3069;DHT22;1545;51.728;8.796;2023-08-07T15:49:13;18.90;71.10
3069;DHT22;1545;51.728;8.796;2023-08-07T15:51:38;19.10;71.80
3069;DHT22;1545;51.728;8.796;2023-08-07T15:54:04;19.10;69.10
3069;DHT22;1545;51.728;8.796;2023-08-07T15:56:29;19.20;69.00
3069;DHT22;1545;51.728;8.796;2023-08-07T15:58:55;19.10;68.50
3069;DHT22;1545;51.728;8.796;2023-08-07T16:01:20;19.20;67.80
3069;DHT22;1545;51.728;8.796;2023-08-07T16:03:46;19.30;67.80
3069;DHT22;1545;51.728;8.796;2023-08-07T16:06:12;19.50;68.10